sensor_id;sensor_type;location;lat;lon;timestamp;P1;durP1;ratioP1;P2;durP2;ratioP2
67715;SDS011;54508;43.238;25.306;2022-08-25T00:00:31;4.15;;;3.00;;
67715;SDS011;54508;43.238;25.306;2022-08-25T00:02:56;4.63;;;3.23;;
67715;SDS011;54508;43.238;25.306;2022-08-25T00:05:25;3.42;;;3.08;;
67715;SDS011;54508;43.238;25.306;2022-08-25T00:07:52;3.90;;;2.85;;
67715;SDS011;54508;43.238;25.306;2022-08-25T00:10:18;4.03;;;3.08;;
67715;SDS011;54508;43.238;25.306;2022-08-25T00:12:44;5.78;;;3.55;;
67715;SDS011;54508;43.238;25.306;2022-08-25T00:15:10;3.67;;;2.83;;
67715;SDS011;54508;43.238;25.306;2022-08-25T00:17:35;4.43;;;2.83;;
67715;SDS011;54508;43.238;25.306;2022-08-25T00:20:01;4.20;;;2.80;;
67715;SDS011;54508;43.238;25.306;2022-08-25T00:22:28;4.13;;;3.15;;
67715;SDS011;54508;43.238;25.306;2022-08-25T00:24:53;4.17;;;2.77;;
67715;SDS011;54508;43.238;25.306;2022-08-25T00:27:19;3.87;;;3.10;;
67715;SDS011;54508;43.238;25.306;2022-08-25T00:29:45;4.28;;;3.03;;
67715;SDS011;54508;43.238;25.306;2022-08-25T00:32:11;4.20;;;3.07;;
67715;SDS011;54508;43.238;25.306;2022-08-25T00:34:37;4.10;;;3.00;;
67715;SDS011;54508;43.238;25.306;2022-08-25T00:37:04;3.38;;;2.78;;
67715;SDS011;54508;43.238;25.306;2022-08-25T00:39:31;6.55;;;3.30;;
67715;SDS011;54508;43.238;25.306;2022-08-25T00:41:57;3.83;;;2.90;;
67715;SDS011;54508;43.238;25.306;2022-08-25T00:44:23;4.75;;;3.03;;
67715;SDS011;54508;43.238;25.306;2022-08-25T00:46:51;4.33;;;2.83;;
67715;SDS011;54508;43.238;25.306;2022-08-25T00:49:19;4.10;;;3.10;;
67715;SDS011;54508;43.238;25.306;2022-08-25T00:51:57;4.22;;;3.70;;
67715;SDS011;54508;43.238;25.306;2022-08-25T00:54:34;4.20;;;3.30;;
67715;SDS011;54508;43.238;25.306;2022-08-25T00:57:06;8.13;;;2.92;;
67715;SDS011;54508;43.238;25.306;2022-08-25T00:59:32;3.97;;;3.07;;
67715;SDS011;54508;43.238;25.306;2022-08-25T01:01:58;4.38;;;2.90;;
67715;SDS011;54508;43.238;25.306;2022-08-25T01:04:24;4.67;;;2.93;;
67715;SDS011;54508;43.238;25.306;2022-08-25T01:06:51;3.75;;;3.20;;
67715;SDS011;54508;43.238;25.306;2022-08-25T01:09:17;4.78;;;3.28;;
67715;SDS011;54508;43.238;25.306;2022-08-25T01:11:44;3.83;;;3.08;;
67715;SDS011;54508;43.238;25.306;2022-08-25T01:14:11;3.70;;;3.13;;
67715;SDS011;54508;43.238;25.306;2022-08-25T01:16:39;5.63;;;3.20;;
67715;SDS011;54508;43.238;25.306;2022-08-25T01:19:05;6.07;;;3.22;;
67715;SDS011;54508;43.238;25.306;2022-08-25T01:21:36;4.82;;;3.33;;
67715;SDS011;54508;43.238;25.306;2022-08-25T01:24:03;4.33;;;2.90;;
67715;SDS011;54508;43.238;25.306;2022-08-25T01:26:31;5.07;;;3.60;;
67715;SDS011;54508;43.238;25.306;2022-08-25T01:28:58;4.60;;;2.90;;
67715;SDS011;54508;43.238;25.306;2022-08-25T01:31:43;5.30;;;2.85;;
67715;SDS011;54508;43.238;25.306;2022-08-25T01:34:10;3.30;;;3.00;;
67715;SDS011;54508;43.238;25.306;2022-08-25T01:36:39;5.50;;;3.42;;
67715;SDS011;54508;43.238;25.306;2022-08-25T01:39:06;3.83;;;3.13;;
67715;SDS011;54508;43.238;25.306;2022-08-25T01:41:39;4.63;;;3.03;;
67715;SDS011;54508;43.238;25.306;2022-08-25T01:44:24;5.18;;;2.95;;
67715;SDS011;54508;43.238;25.306;2022-08-25T01:46:50;4.63;;;3.20;;
67715;SDS011;54508;43.238;25.306;2022-08-25T01:49:16;4.53;;;3.15;;
67715;SDS011;54508;43.238;25.306;2022-08-25T01:51:43;3.87;;;3.10;;
67715;SDS011;54508;43.238;25.306;2022-08-25T01:54:12;3.22;;;2.92;;
67715;SDS011;54508;43.238;25.306;2022-08-25T01:56:37;4.03;;;2.90;;
67715;SDS011;54508;43.238;25.306;2022-08-25T01:59:03;3.88;;;3.38;;
67715;SDS011;54508;43.238;25.306;2022-08-25T02:01:28;3.90;;;3.23;;
67715;SDS011;54508;43.238;25.306;2022-08-25T02:03:54;5.50;;;3.17;;
67715;SDS011;54508;43.238;25.306;2022-08-25T02:06:21;6.15;;;3.20;;
67715;SDS011;54508;43.238;25.306;2022-08-25T02:08:50;6.22;;;3.95;;
67715;SDS011;54508;43.238;25.306;2022-08-25T02:11:16;6.03;;;3.20;;
67715;SDS011;54508;43.238;25.306;2022-08-25T02:13:41;3.92;;;2.92;;
67715;SDS011;54508;43.238;25.306;2022-08-25T02:16:08;3.30;;;2.87;;
67715;SDS011;54508;43.238;25.306;2022-08-25T02:18:34;4.60;;;3.17;;
67715;SDS011;54508;43.238;25.306;2022-08-25T02:21:00;4.17;;;3.10;;
67715;SDS011;54508;43.238;25.306;2022-08-25T02:23:25;5.73;;;3.10;;
67715;SDS011;54508;43.238;25.306;2022-08-25T02:25:51;3.83;;;3.03;;
67715;SDS011;54508;43.238;25.306;2022-08-25T02:28:17;3.80;;;2.80;;
67715;SDS011;54508;43.238;25.306;2022-08-25T02:30:42;5.90;;;3.13;;
67715;SDS011;54508;43.238;25.306;2022-08-25T02:33:09;5.03;;;3.40;;
67715;SDS011;54508;43.238;25.306;2022-08-25T02:35:35;4.68;;;2.85;;
67715;SDS011;54508;43.238;25.306;2022-08-25T02:38:01;3.78;;;3.08;;
67715;SDS011;54508;43.238;25.306;2022-08-25T02:40:28;5.28;;;3.00;;
67715;SDS011;54508;43.238;25.306;2022-08-25T02:42:54;5.07;;;3.13;;
67715;SDS011;54508;43.238;25.306;2022-08-25T02:45:19;4.32;;;3.60;;
67715;SDS011;54508;43.238;25.306;2022-08-25T02:47:45;4.53;;;3.60;;
67715;SDS011;54508;43.238;25.306;2022-08-25T02:50:11;4.22;;;3.40;;
67715;SDS011;54508;43.238;25.306;2022-08-25T02:52:37;3.60;;;3.30;;
67715;SDS011;54508;43.238;25.306;2022-08-25T02:55:04;3.60;;;3.28;;
67715;SDS011;54508;43.238;25.306;2022-08-25T02:57:31;4.80;;;3.63;;
67715;SDS011;54508;43.238;25.306;2022-08-25T02:59:56;3.35;;;3.05;;
67715;SDS011;54508;43.238;25.306;2022-08-25T03:02:23;4.10;;;3.40;;
67715;SDS011;54508;43.238;25.306;2022-08-25T03:04:49;4.93;;;3.50;;
67715;SDS011;54508;43.238;25.306;2022-08-25T03:07:16;4.45;;;3.55;;
67715;SDS011;54508;43.238;25.306;2022-08-25T03:09:42;5.35;;;3.42;;
67715;SDS011;54508;43.238;25.306;2022-08-25T03:12:08;4.87;;;3.50;;
67715;SDS011;54508;43.238;25.306;2022-08-25T03:14:35;4.15;;;3.40;;
67715;SDS011;54508;43.238;25.306;2022-08-25T03:17:00;4.63;;;3.70;;
67715;SDS011;54508;43.238;25.306;2022-08-25T03:19:26;4.20;;;3.40;;
67715;SDS011;54508;43.238;25.306;2022-08-25T03:21:51;5.33;;;3.40;;
67715;SDS011;54508;43.238;25.306;2022-08-25T03:24:20;5.75;;;3.40;;
67715;SDS011;54508;43.238;25.306;2022-08-25T03:26:46;4.57;;;3.40;;
67715;SDS011;54508;43.238;25.306;2022-08-25T03:29:17;4.03;;;3.15;;
67715;SDS011;54508;43.238;25.306;2022-08-25T03:31:44;4.05;;;3.30;;
67715;SDS011;54508;43.238;25.306;2022-08-25T03:34:13;3.90;;;3.47;;
67715;SDS011;54508;43.238;25.306;2022-08-25T03:36:43;4.97;;;3.67;;
67715;SDS011;54508;43.238;25.306;2022-08-25T03:39:10;5.20;;;4.05;;
67715;SDS011;54508;43.238;25.306;2022-08-25T03:41:36;3.88;;;3.42;;
67715;SDS011;54508;43.238;25.306;2022-08-25T03:44:02;4.63;;;4.10;;
67715;SDS011;54508;43.238;25.306;2022-08-25T03:46:30;5.65;;;3.80;;
67715;SDS011;54508;43.238;25.306;2022-08-25T03:48:59;6.70;;;4.05;;
67715;SDS011;54508;43.238;25.306;2022-08-25T03:51:33;5.47;;;4.03;;
67715;SDS011;54508;43.238;25.306;2022-08-25T03:54:04;5.80;;;4.28;;
67715;SDS011;54508;43.238;25.306;2022-08-25T03:56:31;6.57;;;4.05;;
67715;SDS011;54508;43.238;25.306;2022-08-25T03:58:57;7.28;;;3.78;;
67715;SDS011;54508;43.238;25.306;2022-08-25T04:01:23;5.40;;;4.35;;
67715;SDS011;54508;43.238;25.306;2022-08-25T04:03:48;5.13;;;3.70;;
67715;SDS011;54508;43.238;25.306;2022-08-25T04:06:15;7.97;;;4.17;;
67715;SDS011;54508;43.238;25.306;2022-08-25T04:08:41;5.50;;;3.60;;
67715;SDS011;54508;43.238;25.306;2022-08-25T04:11:08;9.25;;;3.58;;
67715;SDS011;54508;43.238;25.306;2022-08-25T04:13:39;5.45;;;4.10;;
67715;SDS011;54508;43.238;25.306;2022-08-25T04:16:13;5.65;;;4.15;;
67715;SDS011;54508;43.238;25.306;2022-08-25T04:18:41;5.65;;;3.85;;
67715;SDS011;54508;43.238;25.306;2022-08-25T04:21:08;5.55;;;4.18;;
67715;SDS011;54508;43.238;25.306;2022-08-25T04:23:35;5.22;;;3.80;;
67715;SDS011;54508;43.238;25.306;2022-08-25T04:26:11;6.65;;;4.20;;
67715;SDS011;54508;43.238;25.306;2022-08-25T04:28:43;4.93;;;4.00;;
67715;SDS011;54508;43.238;25.306;2022-08-25T04:31:10;7.32;;;4.20;;
67715;SDS011;54508;43.238;25.306;2022-08-25T04:33:38;6.97;;;3.90;;
67715;SDS011;54508;43.238;25.306;2022-08-25T04:36:05;7.90;;;3.92;;
67715;SDS011;54508;43.238;25.306;2022-08-25T04:38:31;5.40;;;3.70;;
67715;SDS011;54508;43.238;25.306;2022-08-25T04:40:57;4.97;;;3.78;;
67715;SDS011;54508;43.238;25.306;2022-08-25T04:43:25;4.93;;;3.20;;
67715;SDS011;54508;43.238;25.306;2022-08-25T04:45:51;6.28;;;3.65;;
67715;SDS011;54508;43.238;25.306;2022-08-25T04:48:17;7.72;;;4.40;;
67715;SDS011;54508;43.238;25.306;2022-08-25T04:50:43;6.45;;;4.43;;
67715;SDS011;54508;43.238;25.306;2022-08-25T04:53:09;8.55;;;3.85;;
67715;SDS011;54508;43.238;25.306;2022-08-25T04:55:41;6.60;;;3.85;;
67715;SDS011;54508;43.238;25.306;2022-08-25T04:58:09;6.13;;;3.50;;
67715;SDS011;54508;43.238;25.306;2022-08-25T05:00:36;4.75;;;3.47;;
67715;SDS011;54508;43.238;25.306;2022-08-25T05:03:02;7.35;;;4.10;;
67715;SDS011;54508;43.238;25.306;2022-08-25T05:05:28;4.15;;;3.75;;
67715;SDS011;54508;43.238;25.306;2022-08-25T05:07:55;5.45;;;3.85;;
67715;SDS011;54508;43.238;25.306;2022-08-25T05:10:20;6.23;;;3.67;;
67715;SDS011;54508;43.238;25.306;2022-08-25T05:12:47;4.43;;;3.58;;
67715;SDS011;54508;43.238;25.306;2022-08-25T05:15:13;7.63;;;4.50;;
67715;SDS011;54508;43.238;25.306;2022-08-25T05:17:57;6.03;;;4.15;;
67715;SDS011;54508;43.238;25.306;2022-08-25T05:20:22;4.57;;;4.07;;
67715;SDS011;54508;43.238;25.306;2022-08-25T05:22:48;6.05;;;3.72;;
67715;SDS011;54508;43.238;25.306;2022-08-25T05:25:13;7.33;;;4.23;;
67715;SDS011;54508;43.238;25.306;2022-08-25T05:27:40;8.20;;;5.30;;
67715;SDS011;54508;43.238;25.306;2022-08-25T05:30:06;8.90;;;5.68;;
67715;SDS011;54508;43.238;25.306;2022-08-25T05:32:34;14.50;;;6.30;;
67715;SDS011;54508;43.238;25.306;2022-08-25T05:34:59;14.43;;;6.70;;
67715;SDS011;54508;43.238;25.306;2022-08-25T05:37:25;10.82;;;6.78;;
67715;SDS011;54508;43.238;25.306;2022-08-25T05:39:50;31.27;;;8.40;;
67715;SDS011;54508;43.238;25.306;2022-08-25T05:42:16;19.97;;;8.70;;
67715;SDS011;54508;43.238;25.306;2022-08-25T05:44:41;18.20;;;8.60;;
67715;SDS011;54508;43.238;25.306;2022-08-25T05:47:07;15.63;;;7.87;;
67715;SDS011;54508;43.238;25.306;2022-08-25T05:49:32;12.97;;;7.87;;
67715;SDS011;54508;43.238;25.306;2022-08-25T05:51:58;17.08;;;7.00;;
67715;SDS011;54508;43.238;25.306;2022-08-25T05:54:23;20.92;;;8.05;;
67715;SDS011;54508;43.238;25.306;2022-08-25T05:56:49;13.80;;;6.93;;
67715;SDS011;54508;43.238;25.306;2022-08-25T05:59:15;8.23;;;6.43;;
67715;SDS011;54508;43.238;25.306;2022-08-25T06:01:40;13.47;;;6.70;;
67715;SDS011;54508;43.238;25.306;2022-08-25T06:04:24;15.65;;;7.35;;
67715;SDS011;54508;43.238;25.306;2022-08-25T06:06:50;17.33;;;7.17;;
67715;SDS011;54508;43.238;25.306;2022-08-25T06:09:18;16.25;;;7.03;;
67715;SDS011;54508;43.238;25.306;2022-08-25T06:11:45;26.30;;;7.65;;
67715;SDS011;54508;43.238;25.306;2022-08-25T06:14:11;15.30;;;6.93;;
67715;SDS011;54508;43.238;25.306;2022-08-25T06:16:37;17.67;;;7.25;;
67715;SDS011;54508;43.238;25.306;2022-08-25T06:19:03;21.93;;;7.47;;
67715;SDS011;54508;43.238;25.306;2022-08-25T06:21:28;17.77;;;6.40;;
67715;SDS011;54508;43.238;25.306;2022-08-25T06:23:54;20.90;;;7.32;;
67715;SDS011;54508;43.238;25.306;2022-08-25T06:26:20;20.70;;;7.23;;
67715;SDS011;54508;43.238;25.306;2022-08-25T06:28:45;29.87;;;7.80;;
67715;SDS011;54508;43.238;25.306;2022-08-25T06:31:11;23.85;;;7.90;;
67715;SDS011;54508;43.238;25.306;2022-08-25T06:33:36;29.00;;;7.78;;
67715;SDS011;54508;43.238;25.306;2022-08-25T06:36:03;27.27;;;7.82;;
67715;SDS011;54508;43.238;25.306;2022-08-25T06:38:29;19.90;;;7.07;;
67715;SDS011;54508;43.238;25.306;2022-08-25T06:40:54;19.95;;;7.63;;
67715;SDS011;54508;43.238;25.306;2022-08-25T06:43:21;11.97;;;6.63;;
67715;SDS011;54508;43.238;25.306;2022-08-25T06:45:47;19.20;;;6.75;;
67715;SDS011;54508;43.238;25.306;2022-08-25T06:48:13;18.83;;;6.93;;
67715;SDS011;54508;43.238;25.306;2022-08-25T06:50:38;19.55;;;7.03;;
67715;SDS011;54508;43.238;25.306;2022-08-25T06:53:05;21.50;;;6.50;;
67715;SDS011;54508;43.238;25.306;2022-08-25T06:55:31;19.50;;;6.32;;
67715;SDS011;54508;43.238;25.306;2022-08-25T06:57:59;22.63;;;6.28;;
67715;SDS011;54508;43.238;25.306;2022-08-25T07:00:24;11.75;;;6.00;;
67715;SDS011;54508;43.238;25.306;2022-08-25T07:02:50;18.53;;;5.97;;
67715;SDS011;54508;43.238;25.306;2022-08-25T07:05:15;19.50;;;6.13;;
67715;SDS011;54508;43.238;25.306;2022-08-25T07:07:41;18.67;;;5.73;;
67715;SDS011;54508;43.238;25.306;2022-08-25T07:10:10;16.90;;;6.18;;
67715;SDS011;54508;43.238;25.306;2022-08-25T07:12:36;20.55;;;5.85;;
67715;SDS011;54508;43.238;25.306;2022-08-25T07:15:02;27.75;;;7.20;;
67715;SDS011;54508;43.238;25.306;2022-08-25T07:17:28;20.70;;;6.07;;
67715;SDS011;54508;43.238;25.306;2022-08-25T07:19:54;16.52;;;6.28;;
67715;SDS011;54508;43.238;25.306;2022-08-25T07:22:19;27.80;;;6.37;;
67715;SDS011;54508;43.238;25.306;2022-08-25T07:24:45;33.33;;;6.47;;
67715;SDS011;54508;43.238;25.306;2022-08-25T07:27:10;24.33;;;6.65;;
67715;SDS011;54508;43.238;25.306;2022-08-25T07:29:36;27.20;;;8.10;;
67715;SDS011;54508;43.238;25.306;2022-08-25T07:32:03;17.80;;;6.80;;
67715;SDS011;54508;43.238;25.306;2022-08-25T07:34:30;24.02;;;5.75;;
67715;SDS011;54508;43.238;25.306;2022-08-25T07:37:14;23.42;;;6.63;;
67715;SDS011;54508;43.238;25.306;2022-08-25T07:39:39;28.63;;;8.03;;
67715;SDS011;54508;43.238;25.306;2022-08-25T07:42:05;20.80;;;9.13;;
67715;SDS011;54508;43.238;25.306;2022-08-25T07:44:31;22.47;;;7.27;;
67715;SDS011;54508;43.238;25.306;2022-08-25T07:46:56;25.02;;;6.93;;
67715;SDS011;54508;43.238;25.306;2022-08-25T07:49:22;16.13;;;6.72;;
67715;SDS011;54508;43.238;25.306;2022-08-25T07:51:52;22.60;;;6.68;;
67715;SDS011;54508;43.238;25.306;2022-08-25T07:54:18;28.67;;;6.45;;
67715;SDS011;54508;43.238;25.306;2022-08-25T07:56:44;22.00;;;5.80;;
67715;SDS011;54508;43.238;25.306;2022-08-25T07:59:09;27.30;;;6.90;;
67715;SDS011;54508;43.238;25.306;2022-08-25T08:01:35;24.40;;;6.97;;
67715;SDS011;54508;43.238;25.306;2022-08-25T08:04:01;25.55;;;6.50;;
67715;SDS011;54508;43.238;25.306;2022-08-25T08:06:27;26.10;;;6.85;;
67715;SDS011;54508;43.238;25.306;2022-08-25T08:08:53;25.98;;;6.60;;
67715;SDS011;54508;43.238;25.306;2022-08-25T08:13:47;18.47;;;5.53;;
67715;SDS011;54508;43.238;25.306;2022-08-25T08:16:13;25.05;;;5.53;;
67715;SDS011;54508;43.238;25.306;2022-08-25T08:18:41;33.22;;;7.50;;
67715;SDS011;54508;43.238;25.306;2022-08-25T08:21:14;24.08;;;6.30;;
67715;SDS011;54508;43.238;25.306;2022-08-25T08:23:42;20.17;;;6.30;;
67715;SDS011;54508;43.238;25.306;2022-08-25T08:26:08;17.70;;;5.80;;
67715;SDS011;54508;43.238;25.306;2022-08-25T08:28:34;19.60;;;6.20;;
67715;SDS011;54508;43.238;25.306;2022-08-25T08:31:00;19.40;;;6.25;;
67715;SDS011;54508;43.238;25.306;2022-08-25T08:33:25;13.57;;;5.60;;
67715;SDS011;54508;43.238;25.306;2022-08-25T08:36:01;22.33;;;5.87;;
67715;SDS011;54508;43.238;25.306;2022-08-25T08:38:31;18.88;;;5.03;;
67715;SDS011;54508;43.238;25.306;2022-08-25T08:40:59;18.75;;;6.45;;
67715;SDS011;54508;43.238;25.306;2022-08-25T08:43:53;17.05;;;5.40;;
67715;SDS011;54508;43.238;25.306;2022-08-25T08:46:30;17.50;;;5.93;;
67715;SDS011;54508;43.238;25.306;2022-08-25T08:49:05;17.50;;;4.65;;
67715;SDS011;54508;43.238;25.306;2022-08-25T08:51:45;14.30;;;4.68;;
67715;SDS011;54508;43.238;25.306;2022-08-25T08:54:15;17.60;;;5.55;;
67715;SDS011;54508;43.238;25.306;2022-08-25T08:56:45;15.27;;;5.43;;
67715;SDS011;54508;43.238;25.306;2022-08-25T08:59:14;20.80;;;6.25;;
67715;SDS011;54508;43.238;25.306;2022-08-25T09:01:45;12.98;;;6.43;;
67715;SDS011;54508;43.238;25.306;2022-08-25T09:04:20;13.52;;;5.88;;
67715;SDS011;54508;43.238;25.306;2022-08-25T09:06:50;15.25;;;5.97;;
67715;SDS011;54508;43.238;25.306;2022-08-25T09:09:20;13.85;;;5.07;;
67715;SDS011;54508;43.238;25.306;2022-08-25T09:12:01;14.82;;;4.85;;
67715;SDS011;54508;43.238;25.306;2022-08-25T09:18:19;22.73;;;6.25;;
67715;SDS011;54508;43.238;25.306;2022-08-25T09:23:38;19.58;;;5.70;;
67715;SDS011;54508;43.238;25.306;2022-08-25T09:26:27;17.30;;;4.93;;
67715;SDS011;54508;43.238;25.306;2022-08-25T09:29:05;11.85;;;4.95;;
67715;SDS011;54508;43.238;25.306;2022-08-25T09:31:35;17.13;;;4.40;;
67715;SDS011;54508;43.238;25.306;2022-08-25T09:34:04;24.27;;;5.10;;
67715;SDS011;54508;43.238;25.306;2022-08-25T09:36:31;20.98;;;4.28;;
67715;SDS011;54508;43.238;25.306;2022-08-25T09:38:58;20.95;;;5.15;;
67715;SDS011;54508;43.238;25.306;2022-08-25T09:47:12;18.10;;;4.10;;
67715;SDS011;54508;43.238;25.306;2022-08-25T09:49:43;17.08;;;3.92;;
67715;SDS011;54508;43.238;25.306;2022-08-25T09:52:22;16.33;;;4.28;;
67715;SDS011;54508;43.238;25.306;2022-08-25T09:55:09;16.92;;;4.22;;
67715;SDS011;54508;43.238;25.306;2022-08-25T10:00:21;20.80;;;4.00;;
67715;SDS011;54508;43.238;25.306;2022-08-25T10:08:33;10.10;;;4.00;;
67715;SDS011;54508;43.238;25.306;2022-08-25T10:11:05;11.95;;;4.15;;
67715;SDS011;54508;43.238;25.306;2022-08-25T10:13:38;9.00;;;3.57;;
67715;SDS011;54508;43.238;25.306;2022-08-25T10:16:10;10.25;;;4.18;;
67715;SDS011;54508;43.238;25.306;2022-08-25T10:19:09;11.23;;;3.55;;
67715;SDS011;54508;43.238;25.306;2022-08-25T10:21:35;18.13;;;4.40;;
67715;SDS011;54508;43.238;25.306;2022-08-25T10:24:02;9.75;;;4.20;;
67715;SDS011;54508;43.238;25.306;2022-08-25T10:32:19;9.55;;;4.57;;
67715;SDS011;54508;43.238;25.306;2022-08-25T10:34:55;11.52;;;3.95;;
67715;SDS011;54508;43.238;25.306;2022-08-25T10:42:56;10.15;;;5.18;;
67715;SDS011;54508;43.238;25.306;2022-08-25T10:45:28;9.00;;;4.82;;
67715;SDS011;54508;43.238;25.306;2022-08-25T10:48:17;15.32;;;4.97;;
67715;SDS011;54508;43.238;25.306;2022-08-25T10:51:31;14.23;;;4.82;;
67715;SDS011;54508;43.238;25.306;2022-08-25T11:00:04;12.85;;;5.75;;
67715;SDS011;54508;43.238;25.306;2022-08-25T11:05:30;14.32;;;6.88;;
67715;SDS011;54508;43.238;25.306;2022-08-25T11:08:15;17.77;;;6.47;;
67715;SDS011;54508;43.238;25.306;2022-08-25T11:13:57;11.02;;;5.15;;
67715;SDS011;54508;43.238;25.306;2022-08-25T11:16:32;12.55;;;4.60;;
67715;SDS011;54508;43.238;25.306;2022-08-25T11:19:09;6.40;;;4.32;;
67715;SDS011;54508;43.238;25.306;2022-08-25T11:27:14;8.85;;;4.40;;
67715;SDS011;54508;43.238;25.306;2022-08-25T11:30:12;6.43;;;4.28;;
67715;SDS011;54508;43.238;25.306;2022-08-25T11:32:39;5.18;;;3.33;;
67715;SDS011;54508;43.238;25.306;2022-08-25T11:35:06;6.10;;;3.10;;
67715;SDS011;54508;43.238;25.306;2022-08-25T11:37:34;4.30;;;3.22;;
67715;SDS011;54508;43.238;25.306;2022-08-25T11:49:24;4.57;;;2.77;;
67715;SDS011;54508;43.238;25.306;2022-08-25T11:51:47;6.55;;;2.30;;
67715;SDS011;54508;43.238;25.306;2022-08-25T11:54:15;5.30;;;2.78;;
67715;SDS011;54508;43.238;25.306;2022-08-25T11:56:54;4.47;;;3.20;;
67715;SDS011;54508;43.238;25.306;2022-08-25T12:04:54;9.05;;;4.07;;
67715;SDS011;54508;43.238;25.306;2022-08-25T12:07:27;10.25;;;3.70;;
67715;SDS011;54508;43.238;25.306;2022-08-25T12:15:13;4.97;;;3.33;;
67715;SDS011;54508;43.238;25.306;2022-08-25T12:21:27;7.00;;;2.90;;
67715;SDS011;54508;43.238;25.306;2022-08-25T12:23:31;6.85;;;3.47;;
67715;SDS011;54508;43.238;25.306;2022-08-25T12:26:03;6.00;;;3.83;;
67715;SDS011;54508;43.238;25.306;2022-08-25T12:28:46;9.98;;;4.30;;
67715;SDS011;54508;43.238;25.306;2022-08-25T12:32:00;6.50;;;4.05;;
67715;SDS011;54508;43.238;25.306;2022-08-25T12:37:03;7.65;;;4.15;;
67715;SDS011;54508;43.238;25.306;2022-08-25T12:42:31;6.57;;;4.28;;
67715;SDS011;54508;43.238;25.306;2022-08-25T12:45:16;9.82;;;4.20;;
67715;SDS011;54508;43.238;25.306;2022-08-25T12:48:38;8.75;;;3.65;;
67715;SDS011;54508;43.238;25.306;2022-08-25T12:50:55;9.77;;;3.10;;
67715;SDS011;54508;43.238;25.306;2022-08-25T12:56:06;4.15;;;2.92;;
67715;SDS011;54508;43.238;25.306;2022-08-25T12:59:00;5.40;;;2.92;;
67715;SDS011;54508;43.238;25.306;2022-08-25T13:06:38;3.50;;;2.40;;
67715;SDS011;54508;43.238;25.306;2022-08-25T13:11:54;2.38;;;2.13;;
67715;SDS011;54508;43.238;25.306;2022-08-25T13:14:26;4.22;;;2.10;;
67715;SDS011;54508;43.238;25.306;2022-08-25T13:16:58;3.72;;;2.38;;
67715;SDS011;54508;43.238;25.306;2022-08-25T13:19:25;2.85;;;2.33;;
67715;SDS011;54508;43.238;25.306;2022-08-25T13:21:51;4.10;;;2.20;;
67715;SDS011;54508;43.238;25.306;2022-08-25T13:24:40;2.05;;;1.88;;
67715;SDS011;54508;43.238;25.306;2022-08-25T13:27:06;2.40;;;2.00;;
67715;SDS011;54508;43.238;25.306;2022-08-25T13:29:34;2.80;;;1.83;;
67715;SDS011;54508;43.238;25.306;2022-08-25T13:32:02;3.08;;;1.98;;
67715;SDS011;54508;43.238;25.306;2022-08-25T13:34:31;2.90;;;2.15;;
67715;SDS011;54508;43.238;25.306;2022-08-25T13:37:05;2.40;;;2.00;;
67715;SDS011;54508;43.238;25.306;2022-08-25T13:40:05;4.07;;;1.65;;
67715;SDS011;54508;43.238;25.306;2022-08-25T13:42:33;2.58;;;1.90;;
67715;SDS011;54508;43.238;25.306;2022-08-25T13:45:00;2.78;;;1.88;;
67715;SDS011;54508;43.238;25.306;2022-08-25T13:47:39;3.30;;;1.83;;
67715;SDS011;54508;43.238;25.306;2022-08-25T13:52:48;2.08;;;1.83;;
67715;SDS011;54508;43.238;25.306;2022-08-25T13:55:24;3.80;;;1.90;;
67715;SDS011;54508;43.238;25.306;2022-08-25T13:57:53;3.17;;;1.92;;
67715;SDS011;54508;43.238;25.306;2022-08-25T14:01:00;3.65;;;2.00;;
67715;SDS011;54508;43.238;25.306;2022-08-25T14:08:39;2.53;;;1.80;;
67715;SDS011;54508;43.238;25.306;2022-08-25T14:11:14;1.73;;;1.60;;
67715;SDS011;54508;43.238;25.306;2022-08-25T14:13:59;3.35;;;1.77;;
67715;SDS011;54508;43.238;25.306;2022-08-25T14:16:26;6.45;;;1.75;;
67715;SDS011;54508;43.238;25.306;2022-08-25T14:18:53;3.83;;;1.70;;
67715;SDS011;54508;43.238;25.306;2022-08-25T14:21:21;3.33;;;1.73;;
67715;SDS011;54508;43.238;25.306;2022-08-25T14:23:49;2.28;;;1.70;;
67715;SDS011;54508;43.238;25.306;2022-08-25T14:26:16;5.85;;;1.90;;
67715;SDS011;54508;43.238;25.306;2022-08-25T14:28:42;6.57;;;1.70;;
67715;SDS011;54508;43.238;25.306;2022-08-25T14:31:08;4.70;;;1.80;;
67715;SDS011;54508;43.238;25.306;2022-08-25T14:33:39;4.38;;;2.30;;
67715;SDS011;54508;43.238;25.306;2022-08-25T14:36:07;3.95;;;2.38;;
67715;SDS011;54508;43.238;25.306;2022-08-25T14:38:33;7.28;;;2.97;;
67715;SDS011;54508;43.238;25.306;2022-08-25T14:40:59;7.63;;;2.80;;
67715;SDS011;54508;43.238;25.306;2022-08-25T14:43:25;6.30;;;2.70;;
67715;SDS011;54508;43.238;25.306;2022-08-25T14:45:51;7.90;;;2.63;;
67715;SDS011;54508;43.238;25.306;2022-08-25T14:48:24;7.67;;;2.90;;
67715;SDS011;54508;43.238;25.306;2022-08-25T14:50:54;5.88;;;3.10;;
67715;SDS011;54508;43.238;25.306;2022-08-25T14:53:21;3.78;;;2.80;;
67715;SDS011;54508;43.238;25.306;2022-08-25T14:55:47;4.15;;;2.65;;
67715;SDS011;54508;43.238;25.306;2022-08-25T14:58:13;3.70;;;2.25;;
67715;SDS011;54508;43.238;25.306;2022-08-25T15:00:42;5.25;;;2.20;;
67715;SDS011;54508;43.238;25.306;2022-08-25T15:03:12;6.68;;;2.25;;
67715;SDS011;54508;43.238;25.306;2022-08-25T15:05:40;5.35;;;2.28;;
67715;SDS011;54508;43.238;25.306;2022-08-25T15:08:06;2.63;;;2.17;;
67715;SDS011;54508;43.238;25.306;2022-08-25T15:10:50;2.92;;;2.25;;
67715;SDS011;54508;43.238;25.306;2022-08-25T15:13:15;2.80;;;2.00;;
67715;SDS011;54508;43.238;25.306;2022-08-25T15:15:42;3.07;;;1.83;;
67715;SDS011;54508;43.238;25.306;2022-08-25T15:18:08;2.83;;;2.00;;
67715;SDS011;54508;43.238;25.306;2022-08-25T15:20:33;3.67;;;1.80;;
67715;SDS011;54508;43.238;25.306;2022-08-25T15:22:59;2.17;;;1.70;;
67715;SDS011;54508;43.238;25.306;2022-08-25T15:25:25;1.88;;;1.52;;
67715;SDS011;54508;43.238;25.306;2022-08-25T15:27:50;2.27;;;1.40;;
67715;SDS011;54508;43.238;25.306;2022-08-25T15:30:16;1.60;;;1.50;;
67715;SDS011;54508;43.238;25.306;2022-08-25T15:32:41;3.27;;;1.33;;
67715;SDS011;54508;43.238;25.306;2022-08-25T15:35:07;4.37;;;1.70;;
67715;SDS011;54508;43.238;25.306;2022-08-25T15:37:34;3.45;;;1.60;;
67715;SDS011;54508;43.238;25.306;2022-08-25T15:40:00;2.70;;;1.50;;
67715;SDS011;54508;43.238;25.306;2022-08-25T15:42:26;2.85;;;1.52;;
67715;SDS011;54508;43.238;25.306;2022-08-25T15:44:52;1.75;;;1.27;;
67715;SDS011;54508;43.238;25.306;2022-08-25T15:47:18;1.75;;;1.65;;
67715;SDS011;54508;43.238;25.306;2022-08-25T15:49:46;1.80;;;1.42;;
67715;SDS011;54508;43.238;25.306;2022-08-25T15:52:12;2.65;;;1.27;;
67715;SDS011;54508;43.238;25.306;2022-08-25T15:54:38;2.97;;;1.52;;
67715;SDS011;54508;43.238;25.306;2022-08-25T15:57:03;3.33;;;1.50;;
67715;SDS011;54508;43.238;25.306;2022-08-25T15:59:29;4.90;;;1.52;;
67715;SDS011;54508;43.238;25.306;2022-08-25T16:01:55;4.50;;;1.20;;
67715;SDS011;54508;43.238;25.306;2022-08-25T16:04:21;3.05;;;1.30;;
67715;SDS011;54508;43.238;25.306;2022-08-25T16:06:48;2.10;;;1.38;;
67715;SDS011;54508;43.238;25.306;2022-08-25T16:09:13;2.27;;;1.50;;
67715;SDS011;54508;43.238;25.306;2022-08-25T16:11:39;2.95;;;1.40;;
67715;SDS011;54508;43.238;25.306;2022-08-25T16:14:07;1.38;;;1.25;;
67715;SDS011;54508;43.238;25.306;2022-08-25T16:16:32;3.15;;;1.40;;
67715;SDS011;54508;43.238;25.306;2022-08-25T16:18:58;3.50;;;1.00;;
67715;SDS011;54508;43.238;25.306;2022-08-25T16:21:26;1.67;;;1.17;;